sensor_id;sensor_type;location;lat;lon;timestamp;P1;durP1;ratioP1;P2;durP2;ratioP2
69985;SDS011;57328;52.054;5.294;2024-02-16T00:01:29;7.30;;;2.72;;
69985;SDS011;57328;52.054;5.294;2024-02-16T00:03:57;7.93;;;3.38;;
69985;SDS011;57328;52.054;5.294;2024-02-16T00:06:24;6.30;;;2.53;;
69985;SDS011;57328;52.054;5.294;2024-02-16T00:08:52;8.80;;;2.72;;
69985;SDS011;57328;52.054;5.294;2024-02-16T00:11:19;7.55;;;3.30;;
69985;SDS011;57328;52.054;5.294;2024-02-16T00:13:46;7.03;;;2.90;;
69985;SDS011;57328;52.054;5.294;2024-02-16T00:16:13;8.30;;;3.38;;
69985;SDS011;57328;52.054;5.294;2024-02-16T00:18:41;7.65;;;2.78;;
69985;SDS011;57328;52.054;5.294;2024-02-16T00:21:08;8.05;;;3.10;;
69985;SDS011;57328;52.054;5.294;2024-02-16T00:23:36;9.05;;;3.40;;
69985;SDS011;57328;52.054;5.294;2024-02-16T00:26:03;8.95;;;3.08;;
69985;SDS011;57328;52.054;5.294;2024-02-16T00:28:33;10.60;;;3.13;;
69985;SDS011;57328;52.054;5.294;2024-02-16T00:31:00;8.98;;;3.28;;
69985;SDS011;57328;52.054;5.294;2024-02-16T00:33:28;8.52;;;3.03;;
69985;SDS011;57328;52.054;5.294;2024-02-16T00:35:55;6.40;;;2.97;;
69985;SDS011;57328;52.054;5.294;2024-02-16T00:38:23;6.95;;;2.85;;
69985;SDS011;57328;52.054;5.294;2024-02-16T00:40:50;8.35;;;2.90;;
69985;SDS011;57328;52.054;5.294;2024-02-16T00:43:17;6.72;;;2.88;;
69985;SDS011;57328;52.054;5.294;2024-02-16T00:45:44;10.57;;;2.97;;
69985;SDS011;57328;52.054;5.294;2024-02-16T00:48:12;7.82;;;2.88;;
69985;SDS011;57328;52.054;5.294;2024-02-16T00:50:39;9.48;;;3.10;;
69985;SDS011;57328;52.054;5.294;2024-02-16T00:53:09;8.60;;;2.80;;
69985;SDS011;57328;52.054;5.294;2024-02-16T00:55:37;7.25;;;2.70;;
69985;SDS011;57328;52.054;5.294;2024-02-16T00:58:04;5.13;;;2.53;;
69985;SDS011;57328;52.054;5.294;2024-02-16T01:00:32;7.03;;;2.95;;
69985;SDS011;57328;52.054;5.294;2024-02-16T01:02:59;8.75;;;3.08;;
69985;SDS011;57328;52.054;5.294;2024-02-16T01:05:26;9.20;;;2.97;;
69985;SDS011;57328;52.054;5.294;2024-02-16T01:07:54;6.57;;;2.78;;
69985;SDS011;57328;52.054;5.294;2024-02-16T01:10:21;10.90;;;3.15;;
69985;SDS011;57328;52.054;5.294;2024-02-16T01:12:49;8.55;;;2.78;;
69985;SDS011;57328;52.054;5.294;2024-02-16T01:15:19;7.85;;;2.85;;
69985;SDS011;57328;52.054;5.294;2024-02-16T01:17:46;10.13;;;3.00;;
69985;SDS011;57328;52.054;5.294;2024-02-16T01:20:13;7.70;;;2.78;;
69985;SDS011;57328;52.054;5.294;2024-02-16T01:22:40;9.00;;;2.70;;
69985;SDS011;57328;52.054;5.294;2024-02-16T01:25:08;9.40;;;3.03;;
69985;SDS011;57328;52.054;5.294;2024-02-16T01:27:35;7.95;;;2.80;;
69985;SDS011;57328;52.054;5.294;2024-02-16T01:30:03;8.35;;;2.85;;
69985;SDS011;57328;52.054;5.294;2024-02-16T01:32:30;7.90;;;2.75;;
69985;SDS011;57328;52.054;5.294;2024-02-16T01:34:58;7.95;;;3.00;;
69985;SDS011;57328;52.054;5.294;2024-02-16T01:37:25;8.90;;;2.88;;
69985;SDS011;57328;52.054;5.294;2024-02-16T01:39:52;7.35;;;3.00;;
69985;SDS011;57328;52.054;5.294;2024-02-16T01:42:19;9.02;;;2.75;;
69985;SDS011;57328;52.054;5.294;2024-02-16T01:44:47;5.82;;;2.60;;
69985;SDS011;57328;52.054;5.294;2024-02-16T01:47:14;8.57;;;2.97;;
69985;SDS011;57328;52.054;5.294;2024-02-16T01:49:42;7.53;;;2.70;;
69985;SDS011;57328;52.054;5.294;2024-02-16T01:52:09;8.57;;;3.17;;
69985;SDS011;57328;52.054;5.294;2024-02-16T01:54:37;7.55;;;2.88;;
69985;SDS011;57328;52.054;5.294;2024-02-16T01:57:05;8.95;;;3.05;;
69985;SDS011;57328;52.054;5.294;2024-02-16T01:59:34;7.43;;;2.85;;
69985;SDS011;57328;52.054;5.294;2024-02-16T02:02:03;8.30;;;3.28;;
69985;SDS011;57328;52.054;5.294;2024-02-16T02:04:30;8.13;;;2.72;;
69985;SDS011;57328;52.054;5.294;2024-02-16T02:06:57;8.88;;;3.00;;
69985;SDS011;57328;52.054;5.294;2024-02-16T02:09:25;5.88;;;2.90;;
69985;SDS011;57328;52.054;5.294;2024-02-16T02:11:52;6.68;;;2.67;;
69985;SDS011;57328;52.054;5.294;2024-02-16T02:14:22;7.50;;;2.88;;
69985;SDS011;57328;52.054;5.294;2024-02-16T02:16:52;9.70;;;2.83;;
69985;SDS011;57328;52.054;5.294;2024-02-16T02:19:24;6.95;;;3.00;;
69985;SDS011;57328;52.054;5.294;2024-02-16T02:21:52;5.78;;;2.63;;
69985;SDS011;57328;52.054;5.294;2024-02-16T02:24:19;10.02;;;2.97;;
69985;SDS011;57328;52.054;5.294;2024-02-16T02:26:47;7.75;;;3.10;;
69985;SDS011;57328;52.054;5.294;2024-02-16T02:29:15;6.75;;;2.75;;
69985;SDS011;57328;52.054;5.294;2024-02-16T02:31:42;6.78;;;2.85;;
69985;SDS011;57328;52.054;5.294;2024-02-16T02:34:09;8.68;;;3.08;;
69985;SDS011;57328;52.054;5.294;2024-02-16T02:36:37;9.88;;;3.15;;
69985;SDS011;57328;52.054;5.294;2024-02-16T02:39:04;7.47;;;3.10;;
69985;SDS011;57328;52.054;5.294;2024-02-16T02:41:32;6.07;;;2.65;;
69985;SDS011;57328;52.054;5.294;2024-02-16T02:43:59;8.38;;;2.92;;
69985;SDS011;57328;52.054;5.294;2024-02-16T02:46:26;7.05;;;2.95;;
69985;SDS011;57328;52.054;5.294;2024-02-16T02:48:54;8.00;;;3.08;;
69985;SDS011;57328;52.054;5.294;2024-02-16T02:51:21;7.43;;;2.78;;
69985;SDS011;57328;52.054;5.294;2024-02-16T02:53:49;6.47;;;2.72;;
69985;SDS011;57328;52.054;5.294;2024-02-16T02:56:16;8.43;;;3.25;;
69985;SDS011;57328;52.054;5.294;2024-02-16T02:58:44;6.63;;;2.90;;
69985;SDS011;57328;52.054;5.294;2024-02-16T03:01:12;7.03;;;2.95;;
69985;SDS011;57328;52.054;5.294;2024-02-16T03:03:39;6.32;;;2.85;;
69985;SDS011;57328;52.054;5.294;2024-02-16T03:06:07;6.55;;;2.70;;
69985;SDS011;57328;52.054;5.294;2024-02-16T03:08:34;6.53;;;2.90;;
69985;SDS011;57328;52.054;5.294;2024-02-16T03:11:02;9.10;;;2.80;;
69985;SDS011;57328;52.054;5.294;2024-02-16T03:13:31;6.22;;;2.75;;
69985;SDS011;57328;52.054;5.294;2024-02-16T03:15:59;7.68;;;2.55;;
69985;SDS011;57328;52.054;5.294;2024-02-16T03:18:29;8.68;;;2.90;;
69985;SDS011;57328;52.054;5.294;2024-02-16T03:20:57;6.90;;;2.85;;
69985;SDS011;57328;52.054;5.294;2024-02-16T03:23:24;5.85;;;2.60;;
69985;SDS011;57328;52.054;5.294;2024-02-16T03:25:51;8.40;;;2.67;;
69985;SDS011;57328;52.054;5.294;2024-02-16T03:28:19;7.75;;;2.63;;
69985;SDS011;57328;52.054;5.294;2024-02-16T03:30:46;6.65;;;2.75;;
69985;SDS011;57328;52.054;5.294;2024-02-16T03:33:14;7.70;;;3.03;;
69985;SDS011;57328;52.054;5.294;2024-02-16T03:35:41;10.10;;;3.00;;
69985;SDS011;57328;52.054;5.294;2024-02-16T03:38:08;6.80;;;3.08;;
69985;SDS011;57328;52.054;5.294;2024-02-16T03:40:36;8.00;;;3.42;;
69985;SDS011;57328;52.054;5.294;2024-02-16T03:43:03;7.32;;;2.80;;
69985;SDS011;57328;52.054;5.294;2024-02-16T03:45:30;6.55;;;2.83;;
69985;SDS011;57328;52.054;5.294;2024-02-16T03:47:58;6.20;;;2.90;;
69985;SDS011;57328;52.054;5.294;2024-02-16T03:50:26;4.82;;;2.60;;
69985;SDS011;57328;52.054;5.294;2024-02-16T03:52:53;11.63;;;3.28;;
69985;SDS011;57328;52.054;5.294;2024-02-16T03:55:20;5.88;;;2.70;;
69985;SDS011;57328;52.054;5.294;2024-02-16T03:57:47;6.35;;;3.05;;
69985;SDS011;57328;52.054;5.294;2024-02-16T04:00:15;6.88;;;2.60;;
69985;SDS011;57328;52.054;5.294;2024-02-16T04:02:42;9.20;;;3.40;;
69985;SDS011;57328;52.054;5.294;2024-02-16T04:05:09;9.77;;;2.83;;
69985;SDS011;57328;52.054;5.294;2024-02-16T04:07:36;7.28;;;2.92;;
69985;SDS011;57328;52.054;5.294;2024-02-16T04:10:04;6.45;;;2.90;;
69985;SDS011;57328;52.054;5.294;2024-02-16T04:12:33;6.90;;;2.88;;
69985;SDS011;57328;52.054;5.294;2024-02-16T04:15:00;9.10;;;3.00;;
69985;SDS011;57328;52.054;5.294;2024-02-16T04:17:28;5.95;;;2.88;;
69985;SDS011;57328;52.054;5.294;2024-02-16T04:19:55;13.70;;;2.80;;
69985;SDS011;57328;52.054;5.294;2024-02-16T04:22:23;9.68;;;2.75;;
69985;SDS011;57328;52.054;5.294;2024-02-16T04:24:50;6.68;;;2.70;;
69985;SDS011;57328;52.054;5.294;2024-02-16T04:27:17;12.00;;;3.17;;
69985;SDS011;57328;52.054;5.294;2024-02-16T04:29:44;7.15;;;2.53;;
69985;SDS011;57328;52.054;5.294;2024-02-16T04:32:12;8.00;;;2.60;;
69985;SDS011;57328;52.054;5.294;2024-02-16T04:34:39;6.97;;;2.70;;
69985;SDS011;57328;52.054;5.294;2024-02-16T04:37:06;6.82;;;2.70;;
69985;SDS011;57328;52.054;5.294;2024-02-16T04:39:33;6.18;;;2.83;;
69985;SDS011;57328;52.054;5.294;2024-02-16T04:42:01;7.47;;;3.00;;
69985;SDS011;57328;52.054;5.294;2024-02-16T04:44:28;6.80;;;2.60;;
69985;SDS011;57328;52.054;5.294;2024-02-16T04:46:56;7.40;;;2.97;;
69985;SDS011;57328;52.054;5.294;2024-02-16T04:49:23;6.65;;;3.10;;
69985;SDS011;57328;52.054;5.294;2024-02-16T04:51:50;8.57;;;2.90;;
69985;SDS011;57328;52.054;5.294;2024-02-16T04:54:18;8.10;;;2.75;;
69985;SDS011;57328;52.054;5.294;2024-02-16T04:56:45;7.78;;;3.17;;
69985;SDS011;57328;52.054;5.294;2024-02-16T04:59:12;5.90;;;2.70;;
69985;SDS011;57328;52.054;5.294;2024-02-16T05:01:40;7.70;;;2.80;;
69985;SDS011;57328;52.054;5.294;2024-02-16T05:04:07;6.68;;;2.78;;
69985;SDS011;57328;52.054;5.294;2024-02-16T05:06:38;8.38;;;2.97;;
69985;SDS011;57328;52.054;5.294;2024-02-16T05:09:06;6.95;;;2.95;;
69985;SDS011;57328;52.054;5.294;2024-02-16T05:11:33;9.57;;;3.33;;
69985;SDS011;57328;52.054;5.294;2024-02-16T05:14:03;8.27;;;2.90;;
69985;SDS011;57328;52.054;5.294;2024-02-16T05:16:31;7.40;;;3.00;;
69985;SDS011;57328;52.054;5.294;2024-02-16T05:18:58;9.68;;;2.80;;
69985;SDS011;57328;52.054;5.294;2024-02-16T05:21:26;7.35;;;2.67;;
69985;SDS011;57328;52.054;5.294;2024-02-16T05:23:53;7.30;;;3.00;;
69985;SDS011;57328;52.054;5.294;2024-02-16T05:26:21;7.47;;;2.90;;
69985;SDS011;57328;52.054;5.294;2024-02-16T05:28:48;7.95;;;3.15;;
69985;SDS011;57328;52.054;5.294;2024-02-16T05:31:16;5.63;;;2.50;;
69985;SDS011;57328;52.054;5.294;2024-02-16T05:33:46;7.65;;;3.45;;
69985;SDS011;57328;52.054;5.294;2024-02-16T05:36:17;9.32;;;3.03;;
69985;SDS011;57328;52.054;5.294;2024-02-16T05:38:46;7.13;;;2.60;;
69985;SDS011;57328;52.054;5.294;2024-02-16T05:41:15;8.00;;;2.60;;
69985;SDS011;57328;52.054;5.294;2024-02-16T05:43:44;6.80;;;2.53;;
69985;SDS011;57328;52.054;5.294;2024-02-16T05:46:15;6.10;;;2.58;;
69985;SDS011;57328;52.054;5.294;2024-02-16T05:48:42;7.88;;;2.85;;
69985;SDS011;57328;52.054;5.294;2024-02-16T05:51:10;6.40;;;2.97;;
69985;SDS011;57328;52.054;5.294;2024-02-16T05:53:41;7.97;;;2.55;;
69985;SDS011;57328;52.054;5.294;2024-02-16T05:56:08;8.40;;;3.20;;
69985;SDS011;57328;52.054;5.294;2024-02-16T05:58:36;9.00;;;3.05;;
69985;SDS011;57328;52.054;5.294;2024-02-16T06:01:03;4.97;;;2.53;;
69985;SDS011;57328;52.054;5.294;2024-02-16T06:03:32;10.77;;;2.90;;
69985;SDS011;57328;52.054;5.294;2024-02-16T06:06:02;7.13;;;2.53;;
69985;SDS011;57328;52.054;5.294;2024-02-16T06:08:29;6.70;;;2.75;;
69985;SDS011;57328;52.054;5.294;2024-02-16T06:10:56;6.50;;;2.50;;
69985;SDS011;57328;52.054;5.294;2024-02-16T06:13:24;8.95;;;2.80;;
69985;SDS011;57328;52.054;5.294;2024-02-16T06:15:51;7.85;;;2.90;;
69985;SDS011;57328;52.054;5.294;2024-02-16T06:18:18;8.50;;;3.08;;
69985;SDS011;57328;52.054;5.294;2024-02-16T06:20:46;7.85;;;2.85;;
69985;SDS011;57328;52.054;5.294;2024-02-16T06:23:13;6.50;;;2.80;;
69985;SDS011;57328;52.054;5.294;2024-02-16T06:25:43;7.55;;;2.85;;
69985;SDS011;57328;52.054;5.294;2024-02-16T06:28:10;9.15;;;2.97;;
69985;SDS011;57328;52.054;5.294;2024-02-16T06:30:38;7.32;;;2.80;;
69985;SDS011;57328;52.054;5.294;2024-02-16T06:33:05;7.50;;;3.00;;
69985;SDS011;57328;52.054;5.294;2024-02-16T06:35:32;7.18;;;2.90;;
69985;SDS011;57328;52.054;5.294;2024-02-16T06:38:03;8.20;;;2.90;;
69985;SDS011;57328;52.054;5.294;2024-02-16T06:40:31;6.05;;;2.80;;
69985;SDS011;57328;52.054;5.294;2024-02-16T06:42:58;7.97;;;2.92;;
69985;SDS011;57328;52.054;5.294;2024-02-16T06:45:26;7.22;;;2.75;;
69985;SDS011;57328;52.054;5.294;2024-02-16T06:47:53;7.60;;;3.42;;
69985;SDS011;57328;52.054;5.294;2024-02-16T06:50:20;8.40;;;3.28;;
69985;SDS011;57328;52.054;5.294;2024-02-16T06:52:48;9.15;;;3.40;;
69985;SDS011;57328;52.054;5.294;2024-02-16T06:55:15;9.35;;;3.30;;
69985;SDS011;57328;52.054;5.294;2024-02-16T06:57:42;8.77;;;3.00;;
69985;SDS011;57328;52.054;5.294;2024-02-16T07:00:10;11.50;;;3.10;;
69985;SDS011;57328;52.054;5.294;2024-02-16T07:02:37;8.30;;;3.25;;
69985;SDS011;57328;52.054;5.294;2024-02-16T07:05:13;6.88;;;3.00;;
69985;SDS011;57328;52.054;5.294;2024-02-16T07:07:41;5.75;;;2.95;;
69985;SDS011;57328;52.054;5.294;2024-02-16T07:10:09;7.47;;;3.08;;
69985;SDS011;57328;52.054;5.294;2024-02-16T07:12:40;8.32;;;3.10;;
69985;SDS011;57328;52.054;5.294;2024-02-16T07:15:07;6.72;;;3.25;;
69985;SDS011;57328;52.054;5.294;2024-02-16T07:17:35;6.90;;;2.97;;
69985;SDS011;57328;52.054;5.294;2024-02-16T07:20:03;7.13;;;2.85;;
69985;SDS011;57328;52.054;5.294;2024-02-16T07:22:31;8.70;;;3.35;;
69985;SDS011;57328;52.054;5.294;2024-02-16T07:24:59;8.68;;;3.03;;
69985;SDS011;57328;52.054;5.294;2024-02-16T07:27:26;6.78;;;2.92;;
69985;SDS011;57328;52.054;5.294;2024-02-16T07:29:53;6.93;;;2.70;;
69985;SDS011;57328;52.054;5.294;2024-02-16T07:32:21;9.48;;;3.30;;
69985;SDS011;57328;52.054;5.294;2024-02-16T07:34:48;7.65;;;3.15;;
69985;SDS011;57328;52.054;5.294;2024-02-16T07:37:15;7.53;;;2.85;;
69985;SDS011;57328;52.054;5.294;2024-02-16T07:39:43;6.70;;;3.50;;
69985;SDS011;57328;52.054;5.294;2024-02-16T07:42:10;8.70;;;2.83;;
69985;SDS011;57328;52.054;5.294;2024-02-16T07:44:39;6.30;;;3.15;;
69985;SDS011;57328;52.054;5.294;2024-02-16T07:47:06;8.07;;;2.60;;
69985;SDS011;57328;52.054;5.294;2024-02-16T07:49:37;8.40;;;2.70;;
69985;SDS011;57328;52.054;5.294;2024-02-16T07:52:05;8.55;;;3.13;;
69985;SDS011;57328;52.054;5.294;2024-02-16T07:54:32;8.88;;;3.20;;
69985;SDS011;57328;52.054;5.294;2024-02-16T07:56:59;6.43;;;3.00;;
69985;SDS011;57328;52.054;5.294;2024-02-16T07:59:27;9.02;;;3.30;;
69985;SDS011;57328;52.054;5.294;2024-02-16T08:01:54;7.25;;;3.28;;
69985;SDS011;57328;52.054;5.294;2024-02-16T08:04:22;7.68;;;2.80;;
69985;SDS011;57328;52.054;5.294;2024-02-16T08:06:49;8.88;;;2.95;;
69985;SDS011;57328;52.054;5.294;2024-02-16T08:09:16;10.43;;;3.60;;
69985;SDS011;57328;52.054;5.294;2024-02-16T08:11:43;9.27;;;2.90;;
69985;SDS011;57328;52.054;5.294;2024-02-16T08:14:11;8.55;;;3.10;;
69985;SDS011;57328;52.054;5.294;2024-02-16T08:16:38;11.73;;;3.35;;
69985;SDS011;57328;52.054;5.294;2024-02-16T08:19:06;8.52;;;3.13;;
69985;SDS011;57328;52.054;5.294;2024-02-16T08:21:33;9.10;;;3.03;;
69985;SDS011;57328;52.054;5.294;2024-02-16T08:24:00;11.02;;;4.90;;
69985;SDS011;57328;52.054;5.294;2024-02-16T08:26:28;5.78;;;2.67;;
69985;SDS011;57328;52.054;5.294;2024-02-16T08:28:55;9.07;;;3.72;;
69985;SDS011;57328;52.054;5.294;2024-02-16T08:31:22;7.70;;;3.30;;
69985;SDS011;57328;52.054;5.294;2024-02-16T08:33:50;8.15;;;3.75;;
69985;SDS011;57328;52.054;5.294;2024-02-16T08:36:17;9.85;;;3.60;;
69985;SDS011;57328;52.054;5.294;2024-02-16T08:38:47;8.50;;;3.35;;
69985;SDS011;57328;52.054;5.294;2024-02-16T08:41:14;10.35;;;3.35;;
69985;SDS011;57328;52.054;5.294;2024-02-16T08:43:42;7.80;;;3.35;;
69985;SDS011;57328;52.054;5.294;2024-02-16T08:46:09;7.63;;;3.50;;
69985;SDS011;57328;52.054;5.294;2024-02-16T08:48:36;8.30;;;3.35;;
69985;SDS011;57328;52.054;5.294;2024-02-16T08:51:04;10.90;;;3.70;;
69985;SDS011;57328;52.054;5.294;2024-02-16T08:53:32;12.02;;;3.65;;
69985;SDS011;57328;52.054;5.294;2024-02-16T08:56:00;9.60;;;3.65;;
69985;SDS011;57328;52.054;5.294;2024-02-16T08:58:27;8.23;;;3.20;;
69985;SDS011;57328;52.054;5.294;2024-02-16T09:00:54;8.27;;;3.47;;
69985;SDS011;57328;52.054;5.294;2024-02-16T09:03:22;8.35;;;3.67;;
69985;SDS011;57328;52.054;5.294;2024-02-16T09:05:50;8.13;;;3.25;;
69985;SDS011;57328;52.054;5.294;2024-02-16T09:08:18;7.45;;;3.17;;
69985;SDS011;57328;52.054;5.294;2024-02-16T09:10:45;17.77;;;3.40;;
69985;SDS011;57328;52.054;5.294;2024-02-16T09:13:12;7.97;;;3.80;;
69985;SDS011;57328;52.054;5.294;2024-02-16T09:15:40;10.93;;;4.00;;
69985;SDS011;57328;52.054;5.294;2024-02-16T09:18:07;8.88;;;3.60;;
69985;SDS011;57328;52.054;5.294;2024-02-16T09:20:35;10.95;;;3.83;;
69985;SDS011;57328;52.054;5.294;2024-02-16T09:23:04;7.35;;;3.60;;
69985;SDS011;57328;52.054;5.294;2024-02-16T09:25:33;12.30;;;4.13;;
69985;SDS011;57328;52.054;5.294;2024-02-16T09:28:01;7.97;;;3.55;;
69985;SDS011;57328;52.054;5.294;2024-02-16T09:30:28;10.77;;;4.20;;
69985;SDS011;57328;52.054;5.294;2024-02-16T09:32:55;9.88;;;4.50;;
69985;SDS011;57328;52.054;5.294;2024-02-16T09:35:22;9.32;;;3.88;;
69985;SDS011;57328;52.054;5.294;2024-02-16T09:37:50;9.38;;;4.05;;
69985;SDS011;57328;52.054;5.294;2024-02-16T09:40:17;8.98;;;3.63;;
69985;SDS011;57328;52.054;5.294;2024-02-16T09:42:49;10.43;;;4.28;;
69985;SDS011;57328;52.054;5.294;2024-02-16T09:45:17;8.25;;;4.00;;
69985;SDS011;57328;52.054;5.294;2024-02-16T09:47:45;11.68;;;4.10;;
69985;SDS011;57328;52.054;5.294;2024-02-16T09:50:28;9.77;;;3.85;;
69985;SDS011;57328;52.054;5.294;2024-02-16T09:52:56;8.55;;;4.00;;
69985;SDS011;57328;52.054;5.294;2024-02-16T09:55:23;8.68;;;3.90;;
69985;SDS011;57328;52.054;5.294;2024-02-16T09:58:00;9.10;;;4.18;;
69985;SDS011;57328;52.054;5.294;2024-02-16T10:00:28;11.05;;;3.72;;
69985;SDS011;57328;52.054;5.294;2024-02-16T10:02:55;11.73;;;4.20;;
69985;SDS011;57328;52.054;5.294;2024-02-16T10:05:22;10.93;;;4.00;;
69985;SDS011;57328;52.054;5.294;2024-02-16T10:07:53;10.95;;;4.28;;
69985;SDS011;57328;52.054;5.294;2024-02-16T10:10:20;9.98;;;4.53;;
69985;SDS011;57328;52.054;5.294;2024-02-16T10:13:00;10.43;;;4.75;;
69985;SDS011;57328;52.054;5.294;2024-02-16T10:15:28;11.52;;;4.30;;
69985;SDS011;57328;52.054;5.294;2024-02-16T10:18:02;12.48;;;4.50;;
69985;SDS011;57328;52.054;5.294;2024-02-16T10:20:30;11.50;;;4.95;;
69985;SDS011;57328;52.054;5.294;2024-02-16T10:25:34;10.60;;;4.30;;
69985;SDS011;57328;52.054;5.294;2024-02-16T10:28:06;9.43;;;4.97;;
69985;SDS011;57328;52.054;5.294;2024-02-16T10:30:37;9.48;;;4.43;;
69985;SDS011;57328;52.054;5.294;2024-02-16T10:33:05;11.23;;;4.88;;
69985;SDS011;57328;52.054;5.294;2024-02-16T10:40:32;11.43;;;4.80;;
69985;SDS011;57328;52.054;5.294;2024-02-16T10:43:06;10.55;;;4.88;;
69985;SDS011;57328;52.054;5.294;2024-02-16T10:45:34;11.13;;;5.38;;
69985;SDS011;57328;52.054;5.294;2024-02-16T10:48:02;9.25;;;4.05;;
69985;SDS011;57328;52.054;5.294;2024-02-16T10:50:31;13.43;;;5.28;;
69985;SDS011;57328;52.054;5.294;2024-02-16T10:53:01;13.38;;;5.50;;
69985;SDS011;57328;52.054;5.294;2024-02-16T10:55:30;11.57;;;5.35;;
69985;SDS011;57328;52.054;5.294;2024-02-16T10:57:57;14.52;;;5.78;;
69985;SDS011;57328;52.054;5.294;2024-02-16T11:00:26;14.75;;;5.47;;
69985;SDS011;57328;52.054;5.294;2024-02-16T11:02:57;16.88;;;5.93;;
69985;SDS011;57328;52.054;5.294;2024-02-16T11:05:39;13.40;;;6.00;;
69985;SDS011;57328;52.054;5.294;2024-02-16T11:08:29;18.70;;;7.50;;
69985;SDS011;57328;52.054;5.294;2024-02-16T11:11:04;16.27;;;7.72;;
69985;SDS011;57328;52.054;5.294;2024-02-16T11:13:35;18.42;;;7.47;;
69985;SDS011;57328;52.054;5.294;2024-02-16T11:16:06;20.17;;;9.35;;
69985;SDS011;57328;52.054;5.294;2024-02-16T11:18:37;20.33;;;9.40;;
69985;SDS011;57328;52.054;5.294;2024-02-16T11:21:06;18.30;;;8.38;;
69985;SDS011;57328;52.054;5.294;2024-02-16T11:23:34;16.73;;;7.55;;
69985;SDS011;57328;52.054;5.294;2024-02-16T11:26:04;18.13;;;7.78;;
69985;SDS011;57328;52.054;5.294;2024-02-16T11:28:51;16.15;;;7.60;;
69985;SDS011;57328;52.054;5.294;2024-02-16T11:31:34;14.95;;;7.70;;
69985;SDS011;57328;52.054;5.294;2024-02-16T11:34:24;14.18;;;8.07;;
69985;SDS011;57328;52.054;5.294;2024-02-16T11:37:09;16.38;;;7.75;;
69985;SDS011;57328;52.054;5.294;2024-02-16T11:39:55;15.05;;;7.43;;
69985;SDS011;57328;52.054;5.294;2024-02-16T11:42:36;18.25;;;7.97;;
69985;SDS011;57328;52.054;5.294;2024-02-16T11:45:17;17.77;;;8.90;;
69985;SDS011;57328;52.054;5.294;2024-02-16T11:48:05;15.73;;;7.93;;
69985;SDS011;57328;52.054;5.294;2024-02-16T11:50:47;20.27;;;8.57;;
69985;SDS011;57328;52.054;5.294;2024-02-16T11:53:28;18.45;;;8.60;;
69985;SDS011;57328;52.054;5.294;2024-02-16T11:56:09;19.15;;;9.18;;
69985;SDS011;57328;52.054;5.294;2024-02-16T12:01:31;19.83;;;9.80;;
69985;SDS011;57328;52.054;5.294;2024-02-16T12:04:21;27.20;;;11.23;;
69985;SDS011;57328;52.054;5.294;2024-02-16T12:07:02;25.73;;;11.25;;
69985;SDS011;57328;52.054;5.294;2024-02-16T12:09:54;20.10;;;9.75;;
69985;SDS011;57328;52.054;5.294;2024-02-16T12:12:35;21.05;;;10.70;;
69985;SDS011;57328;52.054;5.294;2024-02-16T12:15:04;20.58;;;10.15;;
69985;SDS011;57328;52.054;5.294;2024-02-16T12:17:32;23.65;;;9.63;;
69985;SDS011;57328;52.054;5.294;2024-02-16T12:19:59;16.73;;;8.10;;
69985;SDS011;57328;52.054;5.294;2024-02-16T12:22:27;17.05;;;8.68;;
69985;SDS011;57328;52.054;5.294;2024-02-16T12:24:54;15.55;;;6.82;;
69985;SDS011;57328;52.054;5.294;2024-02-16T12:27:24;15.50;;;6.70;;
69985;SDS011;57328;52.054;5.294;2024-02-16T12:29:51;12.73;;;6.15;;
69985;SDS011;57328;52.054;5.294;2024-02-16T12:32:19;15.13;;;5.72;;
69985;SDS011;57328;52.054;5.294;2024-02-16T12:34:47;12.90;;;6.43;;
69985;SDS011;57328;52.054;5.294;2024-02-16T12:37:14;10.45;;;5.90;;
69985;SDS011;57328;52.054;5.294;2024-02-16T12:39:42;12.63;;;5.28;;
69985;SDS011;57328;52.054;5.294;2024-02-16T12:42:09;12.18;;;5.20;;
69985;SDS011;57328;52.054;5.294;2024-02-16T12:44:42;9.35;;;4.28;;
69985;SDS011;57328;52.054;5.294;2024-02-16T12:47:09;10.55;;;4.20;;
69985;SDS011;57328;52.054;5.294;2024-02-16T12:49:36;7.93;;;3.80;;
69985;SDS011;57328;52.054;5.294;2024-02-16T12:52:04;8.40;;;3.42;;
69985;SDS011;57328;52.054;5.294;2024-02-16T12:54:31;8.18;;;3.35;;
69985;SDS011;57328;52.054;5.294;2024-02-16T12:56:59;7.45;;;3.30;;
69985;SDS011;57328;52.054;5.294;2024-02-16T12:59:27;7.40;;;3.08;;
69985;SDS011;57328;52.054;5.294;2024-02-16T13:01:54;4.85;;;2.78;;
69985;SDS011;57328;52.054;5.294;2024-02-16T13:04:21;5.97;;;2.50;;
69985;SDS011;57328;52.054;5.294;2024-02-16T13:06:49;6.95;;;2.72;;
69985;SDS011;57328;52.054;5.294;2024-02-16T13:09:19;5.93;;;2.45;;
69985;SDS011;57328;52.054;5.294;2024-02-16T13:11:46;4.72;;;2.13;;
69985;SDS011;57328;52.054;5.294;2024-02-16T13:14:21;4.13;;;2.08;;
69985;SDS011;57328;52.054;5.294;2024-02-16T13:16:48;5.68;;;2.42;;
69985;SDS011;57328;52.054;5.294;2024-02-16T13:19:15;6.47;;;2.33;;
69985;SDS011;57328;52.054;5.294;2024-02-16T13:21:44;4.88;;;2.40;;
69985;SDS011;57328;52.054;5.294;2024-02-16T13:24:12;5.13;;;2.25;;
69985;SDS011;57328;52.054;5.294;2024-02-16T13:26:39;5.03;;;2.22;;
69985;SDS011;57328;52.054;5.294;2024-02-16T13:29:07;4.13;;;2.03;;
69985;SDS011;57328;52.054;5.294;2024-02-16T13:31:34;5.72;;;2.30;;
69985;SDS011;57328;52.054;5.294;2024-02-16T13:34:01;6.20;;;2.30;;
69985;SDS011;57328;52.054;5.294;2024-02-16T13:36:28;4.95;;;2.40;;
69985;SDS011;57328;52.054;5.294;2024-02-16T13:38:57;5.50;;;2.05;;
69985;SDS011;57328;52.054;5.294;2024-02-16T13:41:24;4.60;;;2.13;;
69985;SDS011;57328;52.054;5.294;2024-02-16T13:43:52;5.07;;;1.90;;
69985;SDS011;57328;52.054;5.294;2024-02-16T13:46:19;6.55;;;2.15;;
69985;SDS011;57328;52.054;5.294;2024-02-16T13:48:47;5.93;;;1.80;;
69985;SDS011;57328;52.054;5.294;2024-02-16T13:51:15;6.30;;;2.15;;
69985;SDS011;57328;52.054;5.294;2024-02-16T13:53:42;4.78;;;1.70;;
69985;SDS011;57328;52.054;5.294;2024-02-16T13:56:10;4.40;;;2.00;;
69985;SDS011;57328;52.054;5.294;2024-02-16T13:58:38;5.50;;;2.10;;
69985;SDS011;57328;52.054;5.294;2024-02-16T14:01:06;5.80;;;2.47;;
69985;SDS011;57328;52.054;5.294;2024-02-16T14:03:34;8.48;;;2.30;;
69985;SDS011;57328;52.054;5.294;2024-02-16T14:06:03;7.65;;;2.28;;
69985;SDS011;57328;52.054;5.294;2024-02-16T14:08:31;6.25;;;2.70;;
69985;SDS011;57328;52.054;5.294;2024-02-16T14:10:58;7.80;;;2.83;;
69985;SDS011;57328;52.054;5.294;2024-02-16T14:13:26;7.25;;;2.92;;
69985;SDS011;57328;52.054;5.294;2024-02-16T14:15:53;7.40;;;2.95;;
69985;SDS011;57328;52.054;5.294;2024-02-16T14:18:20;8.93;;;2.95;;
69985;SDS011;57328;52.054;5.294;2024-02-16T14:21:00;8.02;;;3.13;;
69985;SDS011;57328;52.054;5.294;2024-02-16T14:23:29;8.98;;;3.65;;
69985;SDS011;57328;52.054;5.294;2024-02-16T14:25:56;7.93;;;3.60;;
69985;SDS011;57328;52.054;5.294;2024-02-16T14:28:23;7.70;;;3.17;;
69985;SDS011;57328;52.054;5.294;2024-02-16T14:30:50;7.85;;;3.45;;
69985;SDS011;57328;52.054;5.294;2024-02-16T14:33:18;7.93;;;3.80;;
69985;SDS011;57328;52.054;5.294;2024-02-16T14:35:58;7.88;;;3.72;;
69985;SDS011;57328;52.054;5.294;2024-02-16T14:38:27;8.57;;;4.00;;
69985;SDS011;57328;52.054;5.294;2024-02-16T14:40:54;11.07;;;4.32;;
69985;SDS011;57328;52.054;5.294;2024-02-16T14:43:21;8.43;;;3.80;;
69985;SDS011;57328;52.054;5.294;2024-02-16T14:45:49;8.80;;;3.90;;
69985;SDS011;57328;52.054;5.294;2024-02-16T14:48:16;8.43;;;4.05;;
69985;SDS011;57328;52.054;5.294;2024-02-16T14:50:44;9.60;;;3.75;;
69985;SDS011;57328;52.054;5.294;2024-02-16T14:53:11;7.82;;;3.83;;
69985;SDS011;57328;52.054;5.294;2024-02-16T14:55:38;7.70;;;3.88;;
69985;SDS011;57328;52.054;5.294;2024-02-16T14:58:06;7.85;;;4.00;;
69985;SDS011;57328;52.054;5.294;2024-02-16T15:00:33;9.10;;;4.47;;
69985;SDS011;57328;52.054;5.294;2024-02-16T15:03:02;9.68;;;4.57;;
69985;SDS011;57328;52.054;5.294;2024-02-16T15:05:30;11.52;;;5.22;;